HCMF

Bosaso Airport

Bosaso, Somalia
METAR HCMF 160500Z 18025G38KT CAVOK 33/18 Q1005
Observed Flight Rules
Aug-16 @ 05:00 UTC (an hour ago) Visual Flight Rules
Wind Visibility Clouds
180° at 25 knots
 Gusting to 38 knots
10,000+ meters
  • Clear skies
Temperatures Readings
Current 33°C / 91°F
Dewpoint 18°C / 64°F
Humidity 41%
Altimeter 29.68" Hg
Pressure 1005 hPa
Elevation 2
METAR HCMF 160500Z 18025G38KT CAVOK 33/18 Q1005
Observed Flight Rules
Aug-16 @ 05:00 UTC
(an hour ago)
VFR
Wind Visibility
180° at 25 knots
 Gusting to 38 knots
10,000+ meters
Clouds
  • Clear skies
Temperature Dewpoint
33°C / 91°F 18°C / 64°F
Humidity Altimeter Pressure
41% 29.68" Hg 1005 hPa